createdAt,value
2022-12-03T00:02:04.410Z,32.08
2022-12-03T00:04:36.877Z,30.77
2022-12-03T00:07:03.382Z,34.28
2022-12-03T00:09:30.022Z,27.92
2022-12-03T00:11:56.482Z,31.98
2022-12-03T00:14:24.414Z,33.05
2022-12-03T00:16:52.904Z,26.52
2022-12-03T00:19:19.508Z,31.50
2022-12-03T00:21:45.947Z,28.95
2022-12-03T00:24:12.433Z,31.55
2022-12-03T00:26:41.204Z,32.60
2022-12-03T00:29:07.761Z,30.80
2022-12-03T00:31:34.337Z,31.02
2022-12-03T00:34:01.366Z,30.50
2022-12-03T00:36:30.500Z,30.58
2022-12-03T00:39:00.181Z,30.35
2022-12-03T00:41:26.636Z,26.88
2022-12-03T00:43:57.339Z,33.03
2022-12-03T00:46:24.948Z,33.03
2022-12-03T00:48:51.602Z,33.20
2022-12-03T00:51:21.633Z,30.88
2022-12-03T00:53:48.161Z,27.77
2022-12-03T00:56:18.129Z,31.75
2022-12-03T00:58:47.390Z,34.85
2022-12-03T01:01:14.068Z,31.35
2022-12-03T01:03:40.607Z,35.20
2022-12-03T01:06:07.230Z,33.72
2022-12-03T01:08:36.430Z,32.97
2022-12-03T01:11:26.484Z,30.60
2022-12-03T01:13:55.989Z,33.78
2022-12-03T01:16:25.828Z,32.88
2022-12-03T01:18:52.848Z,36.13
2022-12-03T01:21:19.752Z,35.38
2022-12-03T01:23:46.898Z,33.38
2022-12-03T01:26:13.544Z,37.35
2022-12-03T01:28:41.908Z,32.03
2022-12-03T01:31:27.630Z,37.13
2022-12-03T01:33:54.219Z,33.67
2022-12-03T01:36:20.766Z,35.70
2022-12-03T01:38:48.652Z,33.60
2022-12-03T01:41:21.010Z,37.90
2022-12-03T01:43:48.760Z,32.08
2022-12-03T01:46:19.913Z,34.92
2022-12-03T01:48:48.320Z,34.95
2022-12-03T01:51:15.557Z,34.75
2022-12-03T01:53:48.724Z,34.95
2022-12-03T01:56:16.892Z,35.97
2022-12-03T01:58:44.745Z,35.35
2022-12-03T02:01:14.978Z,36.35
2022-12-03T02:03:42.184Z,38.95
2022-12-03T02:06:16.153Z,34.92
2022-12-03T02:08:42.785Z,36.42
2022-12-03T02:11:18.343Z,35.95
2022-12-03T02:13:46.045Z,40.08
2022-12-03T02:16:12.637Z,36.25
2022-12-03T02:18:39.304Z,39.40
2022-12-03T02:21:16.758Z,39.10
2022-12-03T02:24:08.004Z,38.08
2022-12-03T02:26:34.555Z,38.57
2022-12-03T02:29:02.432Z,33.97
2022-12-03T02:31:29.071Z,38.05
2022-12-03T02:33:58.701Z,38.80
2022-12-03T02:36:25.469Z,35.80
2022-12-03T02:38:52.098Z,37.75
2022-12-03T02:41:39.984Z,41.30
2022-12-03T02:44:07.979Z,37.50
2022-12-03T02:46:35.159Z,31.10
2022-12-03T02:49:06.563Z,39.58
2022-12-03T02:51:34.548Z,40.88
2022-12-03T02:54:01.883Z,41.20
2022-12-03T02:56:32.503Z,41.40
2022-12-03T02:59:03.154Z,33.83
2022-12-03T03:01:30.047Z,45.53
2022-12-03T03:03:57.038Z,42.10
2022-12-03T03:06:23.680Z,39.47
2022-12-03T03:08:50.320Z,39.65
2022-12-03T03:11:18.606Z,37.42
2022-12-03T03:13:47.798Z,37.47
2022-12-03T03:16:14.565Z,39.33
2022-12-03T03:18:42.015Z,36.28
2022-12-03T03:21:08.672Z,35.05
2022-12-03T03:23:38.357Z,35.45
2022-12-03T03:26:09.342Z,35.85
2022-12-03T03:28:39.252Z,34.43
2022-12-03T03:31:08.291Z,30.48
2022-12-03T03:33:35.245Z,33.60
2022-12-03T03:36:02.429Z,36.28
2022-12-03T03:38:30.317Z,33.90
2022-12-03T03:40:59.777Z,34.88
2022-12-03T03:43:26.560Z,32.53
2022-12-03T03:45:53.927Z,32.53
2022-12-03T03:48:21.506Z,34.78
2022-12-03T03:50:56.173Z,33.15
2022-12-03T03:53:24.446Z,33.38
2022-12-03T03:55:51.430Z,33.50
2022-12-03T03:58:18.056Z,35.78
2022-12-03T04:00:45.302Z,31.35
2022-12-03T04:03:12.661Z,32.22
2022-12-03T04:05:39.853Z,34.42
2022-12-03T04:08:06.470Z,33.42
2022-12-03T04:10:56.139Z,33.85
2022-12-03T04:13:22.859Z,30.33
2022-12-03T04:15:49.812Z,32.47
2022-12-03T04:18:52.168Z,33.53
2022-12-03T04:21:39.505Z,30.60
2022-12-03T04:24:07.945Z,26.02
2022-12-03T04:26:52.941Z,27.92
2022-12-03T04:29:20.839Z,30.10
2022-12-03T04:32:06.545Z,30.13
2022-12-03T04:34:51.856Z,31.70
2022-12-03T04:37:18.931Z,30.27
2022-12-03T04:39:45.500Z,29.52
2022-12-03T04:42:14.753Z,28.35
2022-12-03T04:44:41.308Z,26.85
2022-12-03T04:47:09.508Z,28.35
2022-12-03T04:49:40.430Z,25.80
2022-12-03T04:52:07.728Z,23.63
2022-12-03T04:54:34.529Z,23.85
2022-12-03T04:57:01.544Z,24.33
2022-12-03T04:59:28.056Z,25.38
2022-12-03T05:01:54.766Z,26.75
2022-12-03T05:04:21.370Z,23.58
2022-12-03T05:06:47.951Z,26.23
2022-12-03T05:09:17.807Z,26.70
2022-12-03T05:11:50.262Z,24.38
2022-12-03T05:14:16.799Z,23.80
2022-12-03T05:16:43.392Z,25.98
2022-12-03T05:19:10.113Z,24.20
2022-12-03T05:21:36.611Z,22.73
2022-12-03T05:24:03.633Z,24.00
2022-12-03T05:26:30.258Z,25.38
2022-12-03T05:28:56.753Z,22.80
2022-12-03T05:31:23.348Z,24.20
2022-12-03T05:33:49.994Z,21.35
2022-12-03T05:36:16.463Z,22.15
2022-12-03T05:38:43.003Z,21.67
2022-12-03T05:41:28.030Z,22.55
2022-12-03T05:43:54.726Z,24.00
2022-12-03T05:46:21.342Z,24.25
2022-12-03T05:48:47.983Z,22.67
2022-12-03T05:51:14.492Z,23.13
2022-12-03T05:53:41.565Z,22.15
2022-12-03T05:56:08.142Z,23.60
2022-12-03T05:58:34.860Z,24.40
2022-12-03T06:01:01.323Z,23.85
2022-12-03T06:03:28.193Z,24.80
2022-12-03T06:05:54.806Z,24.25
2022-12-03T06:08:24.584Z,25.33
2022-12-03T06:11:00.307Z,23.15
2022-12-03T06:13:26.821Z,19.52
2022-12-03T06:15:53.370Z,24.85
2022-12-03T06:18:19.890Z,23.98
2022-12-03T06:20:46.402Z,20.48
2022-12-03T06:23:12.891Z,24.77
2022-12-03T06:25:39.452Z,24.98
2022-12-03T06:28:07.285Z,27.23
2022-12-03T06:30:35.315Z,25.40
2022-12-03T06:33:02.138Z,23.17
2022-12-03T06:35:31.377Z,26.98
2022-12-03T06:37:57.914Z,25.45
2022-12-03T06:40:26.314Z,27.23
2022-12-03T06:42:53.090Z,27.90
2022-12-03T06:45:19.745Z,26.17
2022-12-03T06:47:46.475Z,26.10
2022-12-03T06:50:13.813Z,27.40
2022-12-03T06:52:40.434Z,27.63
2022-12-03T06:55:07.726Z,26.00
2022-12-03T06:57:34.313Z,27.88
2022-12-03T07:00:00.791Z,27.65
2022-12-03T07:02:27.359Z,23.38
2022-12-03T07:04:54.172Z,24.35
2022-12-03T07:07:26.903Z,23.58
2022-12-03T07:09:56.764Z,24.63
2022-12-03T07:12:23.242Z,25.20
2022-12-03T07:14:49.719Z,24.83
2022-12-03T07:17:18.626Z,24.25
2022-12-03T07:19:45.093Z,28.00
2022-12-03T07:22:11.871Z,25.73
2022-12-03T07:24:38.507Z,26.15
2022-12-03T07:27:04.985Z,26.45
2022-12-03T07:29:31.468Z,26.55
2022-12-03T07:31:57.940Z,22.50
2022-12-03T07:34:39.671Z,27.25
2022-12-03T07:37:06.127Z,26.40
2022-12-03T07:39:32.749Z,24.35
2022-12-03T07:41:59.966Z,26.40
2022-12-03T07:44:26.568Z,28.40
2022-12-03T07:46:53.073Z,28.58
2022-12-03T07:49:19.679Z,28.92
2022-12-03T07:51:53.741Z,28.33
2022-12-03T07:54:23.819Z,28.33
2022-12-03T07:56:50.467Z,27.23
2022-12-03T07:59:17.434Z,25.58
2022-12-03T08:01:47.121Z,27.27
2022-12-03T08:04:14.843Z,26.73
2022-12-03T08:06:41.638Z,26.60
2022-12-03T08:09:09.969Z,30.17
2022-12-03T08:11:45.146Z,28.92
2022-12-03T08:14:13.802Z,28.95
2022-12-03T08:16:42.815Z,30.70
2022-12-03T08:19:16.557Z,30.05
2022-12-03T08:21:43.197Z,27.50
2022-12-03T08:24:20.690Z,31.27
2022-12-03T08:26:48.949Z,31.88
2022-12-03T08:29:18.471Z,30.00
2022-12-03T08:31:57.213Z,32.45
2022-12-03T08:34:27.566Z,31.35
2022-12-03T08:37:06.055Z,30.08
2022-12-03T08:39:34.942Z,31.48
2022-12-03T08:42:23.208Z,34.42
2022-12-03T08:44:49.682Z,32.17
2022-12-03T08:47:24.122Z,34.25
2022-12-03T08:50:00.282Z,30.75
2022-12-03T08:52:35.889Z,33.72
2022-12-03T08:55:38.868Z,35.95
2022-12-03T08:58:41.868Z,35.80
2022-12-03T09:01:11.514Z,33.00
2022-12-03T09:03:41.048Z,35.70
2022-12-03T09:06:07.942Z,35.88
2022-12-03T09:08:34.404Z,33.35
2022-12-03T09:11:01.414Z,36.40
2022-12-03T09:13:27.906Z,36.38
2022-12-03T09:15:54.399Z,38.05
2022-12-03T09:18:20.961Z,34.28
2022-12-03T09:20:47.423Z,31.48
2022-12-03T09:23:14.412Z,29.90
2022-12-03T09:25:40.943Z,34.08
2022-12-03T09:28:07.435Z,37.58
2022-12-03T09:30:33.927Z,39.00
2022-12-03T09:33:00.501Z,38.08
2022-12-03T09:35:33.644Z,38.65
2022-12-03T09:38:00.178Z,39.15
2022-12-03T09:40:26.672Z,39.58
2022-12-03T09:42:58.536Z,36.90
2022-12-03T09:48:01.875Z,39.65
2022-12-03T09:50:28.881Z,44.90
2022-12-03T09:52:59.306Z,43.28
2022-12-03T09:55:27.806Z,46.25
2022-12-03T09:57:57.785Z,39.63
2022-12-03T10:00:31.024Z,44.63
2022-12-03T10:03:02.308Z,46.42
2022-12-03T10:05:29.422Z,41.67
2022-12-03T10:08:03.762Z,43.58
2022-12-03T10:10:30.530Z,44.97
2022-12-03T10:12:57.129Z,38.53
2022-12-03T10:15:23.951Z,41.97
2022-12-03T10:17:54.474Z,47.92
2022-12-03T10:20:22.768Z,44.92
2022-12-03T10:22:49.749Z,47.22
2022-12-03T10:25:19.454Z,39.35
2022-12-03T10:27:59.357Z,45.25
2022-12-03T10:30:28.518Z,47.05
2022-12-03T10:32:58.012Z,45.65
2022-12-03T10:35:25.897Z,47.22
2022-12-03T10:38:06.813Z,47.58
2022-12-03T10:40:35.766Z,47.20
2022-12-03T10:43:22.919Z,47.50
2022-12-03T10:46:03.722Z,49.45
2022-12-03T10:48:31.389Z,49.63
2022-12-03T10:51:05.098Z,45.03
2022-12-03T10:53:37.136Z,49.13
2022-12-03T10:56:06.662Z,51.08
2022-12-03T10:58:38.593Z,39.65
2022-12-03T11:01:19.168Z,50.15
2022-12-03T11:03:47.830Z,49.33
2022-12-03T11:06:17.442Z,50.65
2022-12-03T11:08:49.260Z,52.63
2022-12-03T11:11:21.008Z,50.78
2022-12-03T11:13:51.538Z,49.85
2022-12-03T11:16:53.368Z,51.63
2022-12-03T11:19:39.752Z,50.53
2022-12-03T11:22:06.199Z,49.88
2022-12-03T11:24:35.329Z,50.33
2022-12-03T11:27:01.790Z,49.17
2022-12-03T11:29:46.200Z,50.33
2022-12-03T11:32:35.152Z,49.53
2022-12-03T11:35:01.653Z,51.38
2022-12-03T11:37:30.087Z,50.55
2022-12-03T11:40:24.781Z,48.78
2022-12-03T11:42:51.804Z,47.88
2022-12-03T11:45:35.138Z,46.92
2022-12-03T11:48:10.609Z,49.90
2022-12-03T11:50:53.939Z,49.42
2022-12-03T11:53:26.184Z,49.95
2022-12-03T11:56:08.941Z,48.83
2022-12-03T11:58:38.292Z,52.40
2022-12-03T12:01:07.432Z,52.60
2022-12-03T12:03:54.348Z,49.50
2022-12-03T12:06:23.952Z,46.72
2022-12-03T12:08:59.676Z,50.78
2022-12-03T12:11:31.703Z,50.53
2022-12-03T12:14:12.802Z,47.75
2022-12-03T12:16:51.366Z,50.63
2022-12-03T12:20:10.773Z,50.13
2022-12-03T12:22:37.279Z,47.55
2022-12-03T12:25:06.336Z,50.30
2022-12-03T12:27:45.064Z,49.55
2022-12-03T12:30:17.564Z,43.88
2022-12-03T12:33:07.698Z,53.90
2022-12-03T12:35:34.328Z,53.83
2022-12-03T12:38:10.781Z,51.80
2022-12-03T12:40:40.110Z,54.80
2022-12-03T12:43:32.123Z,50.95
2022-12-03T12:46:45.570Z,46.10
2022-12-03T12:49:00.005Z,47.17
2022-12-03T12:51:26.765Z,52.60
2022-12-03T12:53:53.815Z,50.83
2022-12-03T12:56:30.258Z,52.78
2022-12-03T12:59:01.058Z,51.45
2022-12-03T13:01:32.012Z,54.08
2022-12-03T13:03:59.532Z,49.80
2022-12-03T13:06:29.125Z,39.95
2022-12-03T13:08:57.077Z,50.85
2022-12-03T13:11:41.338Z,51.78
2022-12-03T13:14:34.117Z,51.70
2022-12-03T13:17:07.719Z,52.45
2022-12-03T13:19:47.355Z,48.38
2022-12-03T13:22:20.090Z,50.42
2022-12-03T13:24:50.640Z,46.75
2022-12-03T13:27:17.103Z,54.30
2022-12-03T13:29:45.169Z,54.40
2022-12-03T13:32:16.582Z,51.67
2022-12-03T13:34:44.561Z,51.75
2022-12-03T13:37:26.913Z,53.33
2022-12-03T13:39:58.458Z,50.40
2022-12-03T13:42:39.328Z,54.10
2022-12-03T13:45:14.945Z,51.78
2022-12-03T13:47:46.632Z,55.15
2022-12-03T13:50:25.109Z,52.13
2022-12-03T13:52:52.932Z,57.50
2022-12-03T13:55:29.895Z,54.88
2022-12-03T13:57:57.371Z,52.65
2022-12-03T14:00:24.319Z,55.08
2022-12-03T14:02:54.292Z,51.72
2022-12-03T14:05:21.265Z,54.60
2022-12-03T14:07:47.816Z,54.80
2022-12-03T14:10:14.442Z,56.65
2022-12-03T14:12:40.924Z,53.53
2022-12-03T14:15:09.105Z,56.85
2022-12-03T14:17:35.614Z,58.58
2022-12-03T14:20:03.830Z,59.72
2022-12-03T14:22:30.883Z,57.63
2022-12-03T14:24:57.861Z,57.70
2022-12-03T14:27:24.855Z,59.38
2022-12-03T14:29:52.100Z,58.05
2022-12-03T14:32:19.140Z,60.88
2022-12-03T14:34:45.838Z,59.75
2022-12-03T14:37:12.437Z,55.80
2022-12-03T14:39:41.822Z,54.42
2022-12-03T14:42:14.297Z,59.00
2022-12-03T14:44:51.524Z,56.88
2022-12-03T14:47:22.238Z,56.00
2022-12-03T14:49:50.427Z,46.40
2022-12-03T14:52:17.532Z,56.70
2022-12-03T14:54:45.823Z,55.78
2022-12-03T14:57:14.734Z,55.70
2022-12-03T14:59:42.597Z,56.97
2022-12-03T15:02:10.761Z,56.10
2022-12-03T15:04:39.997Z,60.50
2022-12-03T15:07:07.086Z,57.67
2022-12-03T15:09:33.716Z,57.53
2022-12-03T15:12:00.834Z,58.45
2022-12-03T15:14:27.763Z,52.70
2022-12-03T15:16:54.393Z,54.00
2022-12-03T15:19:23.378Z,55.83
2022-12-03T15:21:55.939Z,57.97
2022-12-03T15:24:22.421Z,55.80
2022-12-03T15:26:49.600Z,51.72
2022-12-03T15:29:16.120Z,57.90
2022-12-03T15:31:42.687Z,54.90
2022-12-03T15:34:09.387Z,52.33
2022-12-03T15:36:36.382Z,58.88
2022-12-03T15:39:04.106Z,49.92
2022-12-03T15:41:33.852Z,52.15
2022-12-03T15:44:02.233Z,56.35
2022-12-03T15:46:34.092Z,59.92
2022-12-03T15:51:30.262Z,54.95
2022-12-03T15:53:56.751Z,57.50
2022-12-03T15:56:23.235Z,61.38
2022-12-03T15:58:49.750Z,55.72
2022-12-03T16:01:19.483Z,55.42
2022-12-03T16:03:46.127Z,53.55
2022-12-03T16:06:12.928Z,55.00
2022-12-03T16:08:39.430Z,55.45
2022-12-03T16:11:08.839Z,55.33
2022-12-03T16:13:37.539Z,58.75
2022-12-03T16:16:07.117Z,55.42
2022-12-03T16:18:33.579Z,55.42
2022-12-03T16:21:03.396Z,52.80
2022-12-03T16:23:30.360Z,56.22
2022-12-03T16:25:56.960Z,56.90
2022-12-03T16:28:26.572Z,56.70
2022-12-03T16:30:53.556Z,57.83
2022-12-03T16:33:27.017Z,55.63
2022-12-03T16:35:54.239Z,53.65
2022-12-03T16:38:20.746Z,55.08
2022-12-03T16:40:48.466Z,54.15
2022-12-03T16:43:14.952Z,54.25
2022-12-03T16:45:56.184Z,57.30
2022-12-03T16:48:26.279Z,54.72
2022-12-03T16:50:53.265Z,55.70
2022-12-03T16:53:19.781Z,53.97
2022-12-03T16:55:46.233Z,56.38
2022-12-03T16:58:17.274Z,56.03
2022-12-03T17:00:43.737Z,55.00
2022-12-03T17:03:10.325Z,55.22
2022-12-03T17:05:40.404Z,60.38
2022-12-03T17:08:06.968Z,52.22
2022-12-03T17:10:33.562Z,53.38
2022-12-03T17:13:15.277Z,57.47
2022-12-03T17:15:41.834Z,52.17
2022-12-03T17:18:09.038Z,53.88
2022-12-03T17:20:36.331Z,49.97
2022-12-03T17:23:03.558Z,53.88
2022-12-03T17:25:31.266Z,52.50
2022-12-03T17:27:57.872Z,49.90
2022-12-03T17:30:24.408Z,54.05
2022-12-03T17:32:51.991Z,49.08
2022-12-03T17:35:20.485Z,54.15
2022-12-03T17:37:50.050Z,53.05
2022-12-03T17:40:17.560Z,48.58
2022-12-03T17:42:46.062Z,47.53
2022-12-03T17:45:13.034Z,51.67
2022-12-03T17:47:39.947Z,46.63
2022-12-03T17:50:08.101Z,50.67
2022-12-03T17:52:34.782Z,52.95
2022-12-03T17:55:12.169Z,52.55
2022-12-03T17:57:43.856Z,52.80
2022-12-03T18:00:11.009Z,50.10
2022-12-03T18:02:37.484Z,48.60
2022-12-03T18:05:04.329Z,49.28
2022-12-03T18:07:33.897Z,54.13
2022-12-03T18:10:00.554Z,53.63
2022-12-03T18:12:27.194Z,49.72
2022-12-03T18:14:56.424Z,54.40
2022-12-03T18:17:25.592Z,56.63
2022-12-03T18:19:52.483Z,50.08
2022-12-03T18:22:19.375Z,55.63
2022-12-03T18:24:50.242Z,52.47
2022-12-03T18:27:18.516Z,52.13
2022-12-03T18:29:44.993Z,51.08
2022-12-03T18:32:27.046Z,50.00
2022-12-03T18:34:54.780Z,52.35
2022-12-03T18:37:21.984Z,49.00
2022-12-03T18:39:48.618Z,51.22
2022-12-03T18:42:21.881Z,51.17
2022-12-03T18:44:51.133Z,47.55
2022-12-03T18:47:20.656Z,50.97
2022-12-03T18:49:47.894Z,51.03
2022-12-03T18:52:23.287Z,48.50
2022-12-03T18:54:49.826Z,45.95
2022-12-03T18:57:16.415Z,50.45
2022-12-03T18:59:42.925Z,50.85
2022-12-03T19:05:11.701Z,46.45
2022-12-03T19:07:43.170Z,46.58
2022-12-03T19:10:10.904Z,46.78
2022-12-03T19:12:37.903Z,45.33
2022-12-03T19:15:05.936Z,46.97
2022-12-03T19:17:38.095Z,48.42
2022-12-03T19:20:05.280Z,48.30
2022-12-03T19:22:33.193Z,44.88
2022-12-03T19:24:59.875Z,48.17
2022-12-03T19:27:26.405Z,46.25
2022-12-03T19:29:53.139Z,49.17
2022-12-03T19:32:19.861Z,44.22
2022-12-03T19:34:46.459Z,47.85
2022-12-03T19:37:13.161Z,46.63
2022-12-03T19:39:39.648Z,47.97
2022-12-03T19:42:06.158Z,46.00
2022-12-03T19:44:33.097Z,46.15
2022-12-03T19:46:59.695Z,43.85
2022-12-03T19:49:26.495Z,45.63
2022-12-03T19:51:53.254Z,45.47
2022-12-03T19:54:19.834Z,47.22
2022-12-03T19:56:46.427Z,43.20
2022-12-03T19:59:14.146Z,41.85
2022-12-03T20:01:43.076Z,45.58
2022-12-03T20:04:12.341Z,46.17
2022-12-03T20:06:39.195Z,43.83
2022-12-03T20:09:09.300Z,41.95
2022-12-03T20:11:35.916Z,42.70
2022-12-03T20:14:08.374Z,43.88
2022-12-03T20:16:35.045Z,41.03
2022-12-03T20:19:04.335Z,42.22
2022-12-03T20:21:33.241Z,45.67
2022-12-03T20:24:00.087Z,43.13
2022-12-03T20:26:28.536Z,42.72
2022-12-03T20:28:56.477Z,45.67
2022-12-03T20:31:25.815Z,43.08
2022-12-03T20:33:56.235Z,41.83
2022-12-03T20:36:23.293Z,44.22
2022-12-03T20:38:56.974Z,43.30
2022-12-03T20:41:23.980Z,42.67
2022-12-03T20:43:51.301Z,40.47
2022-12-03T20:46:30.063Z,42.83
2022-12-03T20:48:57.537Z,38.00
2022-12-03T20:51:31.039Z,41.75
2022-12-03T20:53:59.576Z,41.03
2022-12-03T20:56:31.297Z,40.28
2022-12-03T21:01:28.981Z,40.58
2022-12-03T21:03:56.803Z,42.13
2022-12-03T21:06:25.862Z,39.22
2022-12-03T21:08:54.336Z,41.58
2022-12-03T21:11:24.206Z,42.42
2022-12-03T21:13:50.935Z,42.63
2022-12-03T21:16:45.674Z,38.70
2022-12-03T21:19:09.778Z,40.33
2022-12-03T21:21:36.374Z,41.58
2022-12-03T21:24:02.925Z,40.00
2022-12-03T21:26:29.538Z,41.67
2022-12-03T21:28:56.096Z,40.95
2022-12-03T21:31:28.858Z,39.45
2022-12-03T21:33:56.633Z,40.30
2022-12-03T21:36:25.253Z,36.38
2022-12-03T21:38:52.044Z,38.08
2022-12-03T21:41:22.275Z,36.95
2022-12-03T21:43:48.758Z,34.92
2022-12-03T21:47:12.753Z,33.05
2022-12-03T21:49:03.941Z,37.83
2022-12-03T21:51:30.738Z,36.75
2022-12-03T21:53:57.338Z,35.58
2022-12-03T21:56:23.912Z,37.58
2022-12-03T21:58:50.395Z,34.13
2022-12-03T22:01:20.288Z,34.28
2022-12-03T22:03:47.537Z,30.98
2022-12-03T22:06:14.951Z,36.33
2022-12-03T22:08:41.922Z,31.00
2022-12-03T22:11:13.744Z,35.67
2022-12-03T22:16:13.818Z,35.17
2022-12-03T22:18:40.834Z,35.40
2022-12-03T22:21:12.775Z,30.08
2022-12-03T22:23:39.616Z,36.65
2022-12-03T22:26:11.491Z,35.35
2022-12-03T22:31:08.769Z,35.42
2022-12-03T22:33:36.386Z,36.55
2022-12-03T22:36:08.455Z,37.78
2022-12-03T22:38:35.011Z,35.55
2022-12-03T22:41:06.220Z,36.42
2022-12-03T22:43:33.293Z,38.17
2022-12-03T22:46:00.114Z,35.83
2022-12-03T22:48:26.733Z,38.47
2022-12-03T22:50:53.313Z,35.35
2022-12-03T22:53:20.357Z,39.28
2022-12-03T22:55:58.257Z,36.80
2022-12-03T22:58:26.291Z,36.13
2022-12-03T23:00:54.560Z,37.05
2022-12-03T23:03:23.493Z,36.67
2022-12-03T23:05:50.038Z,37.80
2022-12-03T23:08:19.390Z,37.92
2022-12-03T23:10:50.850Z,39.10
2022-12-03T23:13:17.784Z,43.55
2022-12-03T23:15:49.700Z,40.20
2022-12-03T23:18:17.452Z,39.60
2022-12-03T23:20:52.967Z,38.72
2022-12-03T23:23:20.991Z,39.30
2022-12-03T23:25:57.528Z,36.67
2022-12-03T23:28:27.287Z,40.55
2022-12-03T23:30:54.252Z,40.22
2022-12-03T23:33:20.910Z,37.25
2022-12-03T23:35:47.492Z,31.30
2022-12-03T23:38:14.476Z,38.70
2022-12-03T23:40:47.740Z,38.67
2022-12-03T23:43:17.458Z,41.00
2022-12-03T23:45:43.954Z,36.10
2022-12-03T23:48:10.661Z,45.78
2022-12-03T23:50:41.212Z,40.05
2022-12-03T23:53:07.782Z,42.63
2022-12-03T23:55:34.279Z,33.10
2022-12-03T23:58:00.814Z,37.80
